sensor_id;sensor_type;location;lat;lon;timestamp;temperature;humidity
37242;DHT22;23135;51.078;12.108;2022-08-21T00:02:24;17.70;99.90
37242;DHT22;23135;51.078;12.108;2022-08-21T00:04:51;17.70;99.90
37242;DHT22;23135;51.078;12.108;2022-08-21T00:07:18;17.70;99.90
37242;DHT22;23135;51.078;12.108;2022-08-21T00:09:43;17.70;99.90
37242;DHT22;23135;51.078;12.108;2022-08-21T00:12:09;17.60;99.90
37242;DHT22;23135;51.078;12.108;2022-08-21T00:14:35;17.60;99.90
37242;DHT22;23135;51.078;12.108;2022-08-21T00:17:03;17.60;99.90
37242;DHT22;23135;51.078;12.108;2022-08-21T00:19:28;17.60;99.90
37242;DHT22;23135;51.078;12.108;2022-08-21T00:21:55;17.60;99.90
37242;DHT22;23135;51.078;12.108;2022-08-21T00:24:22;17.60;99.90
37242;DHT22;23135;51.078;12.108;2022-08-21T00:26:49;17.60;99.90
37242;DHT22;23135;51.078;12.108;2022-08-21T00:29:15;17.60;99.90
37242;DHT22;23135;51.078;12.108;2022-08-21T00:31:42;17.60;99.90
37242;DHT22;23135;51.078;12.108;2022-08-21T00:34:08;17.50;99.90
37242;DHT22;23135;51.078;12.108;2022-08-21T00:36:35;17.50;99.90
37242;DHT22;23135;51.078;12.108;2022-08-21T00:39:02;17.50;99.90
37242;DHT22;23135;51.078;12.108;2022-08-21T00:41:28;17.50;99.90
37242;DHT22;23135;51.078;12.108;2022-08-21T00:43:54;17.50;99.90
37242;DHT22;23135;51.078;12.108;2022-08-21T00:46:20;17.50;99.90
37242;DHT22;23135;51.078;12.108;2022-08-21T00:48:46;17.50;99.90
37242;DHT22;23135;51.078;12.108;2022-08-21T00:51:28;17.50;99.90
37242;DHT22;23135;51.078;12.108;2022-08-21T00:53:59;17.50;99.90
37242;DHT22;23135;51.078;12.108;2022-08-21T00:56:25;17.50;99.90
37242;DHT22;23135;51.078;12.108;2022-08-21T00:58:51;17.50;99.90
37242;DHT22;23135;51.078;12.108;2022-08-21T01:01:18;17.50;99.90
37242;DHT22;23135;51.078;12.108;2022-08-21T01:03:44;17.50;99.90
37242;DHT22;23135;51.078;12.108;2022-08-21T01:06:10;17.50;99.90
37242;DHT22;23135;51.078;12.108;2022-08-21T01:08:36;17.50;99.90
37242;DHT22;23135;51.078;12.108;2022-08-21T01:11:02;17.50;99.90
37242;DHT22;23135;51.078;12.108;2022-08-21T01:13:31;17.50;99.90
37242;DHT22;23135;51.078;12.108;2022-08-21T01:15:59;17.50;99.90
37242;DHT22;23135;51.078;12.108;2022-08-21T01:18:27;17.50;99.90
37242;DHT22;23135;51.078;12.108;2022-08-21T01:21:09;17.50;99.90
37242;DHT22;23135;51.078;12.108;2022-08-21T01:23:37;17.40;99.90
37242;DHT22;23135;51.078;12.108;2022-08-21T01:26:04;17.40;99.90
37242;DHT22;23135;51.078;12.108;2022-08-21T01:28:34;17.30;99.90
37242;DHT22;23135;51.078;12.108;2022-08-21T01:31:01;17.30;99.90
37242;DHT22;23135;51.078;12.108;2022-08-21T01:33:28;17.30;99.90
37242;DHT22;23135;51.078;12.108;2022-08-21T01:35:53;17.20;99.90
37242;DHT22;23135;51.078;12.108;2022-08-21T01:38:19;17.20;99.90
37242;DHT22;23135;51.078;12.108;2022-08-21T01:40:45;17.20;99.90
37242;DHT22;23135;51.078;12.108;2022-08-21T01:43:11;17.10;99.90
37242;DHT22;23135;51.078;12.108;2022-08-21T01:45:36;17.10;99.90
37242;DHT22;23135;51.078;12.108;2022-08-21T01:48:02;17.10;99.90
37242;DHT22;23135;51.078;12.108;2022-08-21T01:50:28;17.10;99.90
37242;DHT22;23135;51.078;12.108;2022-08-21T01:52:54;17.00;99.90
37242;DHT22;23135;51.078;12.108;2022-08-21T01:55:20;17.00;99.90
37242;DHT22;23135;51.078;12.108;2022-08-21T01:57:47;17.00;99.90
37242;DHT22;23135;51.078;12.108;2022-08-21T02:00:15;17.00;99.90
37242;DHT22;23135;51.078;12.108;2022-08-21T02:02:41;17.00;99.90
37242;DHT22;23135;51.078;12.108;2022-08-21T02:05:09;16.90;99.90
37242;DHT22;23135;51.078;12.108;2022-08-21T02:07:40;16.90;99.90
37242;DHT22;23135;51.078;12.108;2022-08-21T02:10:07;16.90;99.90
37242;DHT22;23135;51.078;12.108;2022-08-21T02:12:33;17.00;99.90
37242;DHT22;23135;51.078;12.108;2022-08-21T02:14:59;17.00;99.90
37242;DHT22;23135;51.078;12.108;2022-08-21T02:17:25;17.00;99.90
37242;DHT22;23135;51.078;12.108;2022-08-21T02:19:51;17.00;99.90
37242;DHT22;23135;51.078;12.108;2022-08-21T02:22:17;17.00;99.90
37242;DHT22;23135;51.078;12.108;2022-08-21T02:24:42;17.00;99.90
37242;DHT22;23135;51.078;12.108;2022-08-21T02:27:08;17.00;99.90
37242;DHT22;23135;51.078;12.108;2022-08-21T02:29:33;17.00;99.90
37242;DHT22;23135;51.078;12.108;2022-08-21T02:31:59;16.90;99.90
37242;DHT22;23135;51.078;12.108;2022-08-21T02:34:24;17.00;99.90
37242;DHT22;23135;51.078;12.108;2022-08-21T02:36:50;17.00;99.90
37242;DHT22;23135;51.078;12.108;2022-08-21T02:39:16;16.90;99.90
37242;DHT22;23135;51.078;12.108;2022-08-21T02:41:41;16.90;99.90
37242;DHT22;23135;51.078;12.108;2022-08-21T02:44:07;16.80;99.90
37242;DHT22;23135;51.078;12.108;2022-08-21T02:46:32;16.80;99.90
37242;DHT22;23135;51.078;12.108;2022-08-21T02:48:58;16.80;99.90
37242;DHT22;23135;51.078;12.108;2022-08-21T02:51:24;16.80;99.90
37242;DHT22;23135;51.078;12.108;2022-08-21T02:53:50;16.80;99.90
37242;DHT22;23135;51.078;12.108;2022-08-21T02:56:18;16.80;99.90
37242;DHT22;23135;51.078;12.108;2022-08-21T02:58:51;16.80;99.90
37242;DHT22;23135;51.078;12.108;2022-08-21T03:01:18;16.80;99.90
37242;DHT22;23135;51.078;12.108;2022-08-21T03:03:46;16.80;99.90
37242;DHT22;23135;51.078;12.108;2022-08-21T03:06:14;16.80;99.90
37242;DHT22;23135;51.078;12.108;2022-08-21T03:08:40;16.80;99.90
37242;DHT22;23135;51.078;12.108;2022-08-21T03:11:06;16.80;99.90
37242;DHT22;23135;51.078;12.108;2022-08-21T03:13:32;16.80;99.90
37242;DHT22;23135;51.078;12.108;2022-08-21T03:15:58;16.80;99.90
37242;DHT22;23135;51.078;12.108;2022-08-21T03:18:24;16.70;99.90
37242;DHT22;23135;51.078;12.108;2022-08-21T03:20:50;16.60;99.90
37242;DHT22;23135;51.078;12.108;2022-08-21T03:23:16;16.70;99.90
37242;DHT22;23135;51.078;12.108;2022-08-21T03:25:43;16.70;99.90
37242;DHT22;23135;51.078;12.108;2022-08-21T03:28:12;16.70;99.90
37242;DHT22;23135;51.078;12.108;2022-08-21T03:30:39;16.60;99.90
37242;DHT22;23135;51.078;12.108;2022-08-21T03:33:05;16.70;99.90
37242;DHT22;23135;51.078;12.108;2022-08-21T03:35:31;16.60;99.90
37242;DHT22;23135;51.078;12.108;2022-08-21T03:37:56;16.70;99.90
37242;DHT22;23135;51.078;12.108;2022-08-21T03:40:24;16.70;99.90
37242;DHT22;23135;51.078;12.108;2022-08-21T03:42:50;16.80;99.90
37242;DHT22;23135;51.078;12.108;2022-08-21T03:45:20;16.80;99.90
37242;DHT22;23135;51.078;12.108;2022-08-21T03:47:58;16.80;99.90
37242;DHT22;23135;51.078;12.108;2022-08-21T03:50:31;16.80;99.90
37242;DHT22;23135;51.078;12.108;2022-08-21T03:52:58;16.80;99.90
37242;DHT22;23135;51.078;12.108;2022-08-21T03:55:25;16.80;99.90
37242;DHT22;23135;51.078;12.108;2022-08-21T03:57:51;16.80;99.90
37242;DHT22;23135;51.078;12.108;2022-08-21T04:00:18;16.80;99.90
37242;DHT22;23135;51.078;12.108;2022-08-21T04:02:45;16.80;99.90
37242;DHT22;23135;51.078;12.108;2022-08-21T04:05:14;16.80;99.90
37242;DHT22;23135;51.078;12.108;2022-08-21T04:07:53;16.80;99.90
37242;DHT22;23135;51.078;12.108;2022-08-21T04:10:20;16.70;99.90
37242;DHT22;23135;51.078;12.108;2022-08-21T04:12:45;16.70;99.90
37242;DHT22;23135;51.078;12.108;2022-08-21T04:15:11;16.70;99.90
37242;DHT22;23135;51.078;12.108;2022-08-21T04:17:37;16.70;99.90
37242;DHT22;23135;51.078;12.108;2022-08-21T04:20:03;16.60;99.90
37242;DHT22;23135;51.078;12.108;2022-08-21T04:22:29;16.60;99.90
37242;DHT22;23135;51.078;12.108;2022-08-21T04:24:55;16.60;99.90
37242;DHT22;23135;51.078;12.108;2022-08-21T04:27:20;16.60;99.90
37242;DHT22;23135;51.078;12.108;2022-08-21T04:29:46;16.60;99.90
37242;DHT22;23135;51.078;12.108;2022-08-21T04:32:11;16.50;99.90
37242;DHT22;23135;51.078;12.108;2022-08-21T04:34:37;16.50;99.90
37242;DHT22;23135;51.078;12.108;2022-08-21T04:37:02;16.50;99.90
37242;DHT22;23135;51.078;12.108;2022-08-21T04:39:28;16.50;99.90
37242;DHT22;23135;51.078;12.108;2022-08-21T04:41:54;16.50;99.90
37242;DHT22;23135;51.078;12.108;2022-08-21T04:44:19;16.50;99.90
37242;DHT22;23135;51.078;12.108;2022-08-21T04:46:45;16.50;99.90
37242;DHT22;23135;51.078;12.108;2022-08-21T04:49:10;16.40;99.90
37242;DHT22;23135;51.078;12.108;2022-08-21T04:51:37;16.40;99.90
37242;DHT22;23135;51.078;12.108;2022-08-21T04:54:10;16.40;99.90
37242;DHT22;23135;51.078;12.108;2022-08-21T04:56:47;16.40;99.90
37242;DHT22;23135;51.078;12.108;2022-08-21T04:59:18;16.30;99.90
37242;DHT22;23135;51.078;12.108;2022-08-21T05:01:46;16.40;99.90
37242;DHT22;23135;51.078;12.108;2022-08-21T05:04:14;16.40;99.90
37242;DHT22;23135;51.078;12.108;2022-08-21T05:06:44;16.30;99.90
37242;DHT22;23135;51.078;12.108;2022-08-21T05:09:13;16.40;99.90
37242;DHT22;23135;51.078;12.108;2022-08-21T05:11:39;16.30;99.90
37242;DHT22;23135;51.078;12.108;2022-08-21T05:14:06;16.30;99.90
37242;DHT22;23135;51.078;12.108;2022-08-21T05:16:31;16.30;99.90
37242;DHT22;23135;51.078;12.108;2022-08-21T05:18:57;16.40;99.90
37242;DHT22;23135;51.078;12.108;2022-08-21T05:21:24;16.50;99.90
37242;DHT22;23135;51.078;12.108;2022-08-21T05:23:49;16.50;99.90
37242;DHT22;23135;51.078;12.108;2022-08-21T05:26:15;16.60;99.90
37242;DHT22;23135;51.078;12.108;2022-08-21T05:28:40;16.60;99.90
37242;DHT22;23135;51.078;12.108;2022-08-21T05:31:06;16.70;99.90
37242;DHT22;23135;51.078;12.108;2022-08-21T05:33:31;16.70;99.90
37242;DHT22;23135;51.078;12.108;2022-08-21T05:35:57;16.80;99.90
37242;DHT22;23135;51.078;12.108;2022-08-21T05:38:24;16.80;99.90
37242;DHT22;23135;51.078;12.108;2022-08-21T05:40:51;16.80;99.90
37242;DHT22;23135;51.078;12.108;2022-08-21T05:43:16;16.90;99.90
37242;DHT22;23135;51.078;12.108;2022-08-21T05:45:42;16.90;99.90
37242;DHT22;23135;51.078;12.108;2022-08-21T05:48:20;17.00;99.90
37242;DHT22;23135;51.078;12.108;2022-08-21T05:50:47;17.10;99.90
37242;DHT22;23135;51.078;12.108;2022-08-21T05:53:14;17.10;99.90
37242;DHT22;23135;51.078;12.108;2022-08-21T05:55:41;17.10;99.90
37242;DHT22;23135;51.078;12.108;2022-08-21T05:58:06;17.20;99.90
37242;DHT22;23135;51.078;12.108;2022-08-21T06:00:32;17.20;99.90
37242;DHT22;23135;51.078;12.108;2022-08-21T06:02:58;17.30;99.90
37242;DHT22;23135;51.078;12.108;2022-08-21T06:05:24;17.30;99.90
37242;DHT22;23135;51.078;12.108;2022-08-21T06:07:49;17.40;99.90
37242;DHT22;23135;51.078;12.108;2022-08-21T06:10:15;17.40;99.90
37242;DHT22;23135;51.078;12.108;2022-08-21T06:12:41;17.50;99.90
37242;DHT22;23135;51.078;12.108;2022-08-21T06:15:07;17.50;99.90
37242;DHT22;23135;51.078;12.108;2022-08-21T06:17:33;17.60;99.90
37242;DHT22;23135;51.078;12.108;2022-08-21T06:19:58;17.70;99.90
37242;DHT22;23135;51.078;12.108;2022-08-21T06:22:24;17.70;99.90
37242;DHT22;23135;51.078;12.108;2022-08-21T06:24:49;17.80;99.90
37242;DHT22;23135;51.078;12.108;2022-08-21T06:27:15;17.90;99.90
37242;DHT22;23135;51.078;12.108;2022-08-21T06:29:42;17.90;99.90
37242;DHT22;23135;51.078;12.108;2022-08-21T06:32:11;18.00;99.90
37242;DHT22;23135;51.078;12.108;2022-08-21T06:34:38;18.00;99.90
37242;DHT22;23135;51.078;12.108;2022-08-21T06:37:04;18.00;99.90
37242;DHT22;23135;51.078;12.108;2022-08-21T06:39:31;18.10;99.90
37242;DHT22;23135;51.078;12.108;2022-08-21T06:41:56;18.10;99.90
37242;DHT22;23135;51.078;12.108;2022-08-21T06:44:22;18.20;99.90
37242;DHT22;23135;51.078;12.108;2022-08-21T06:46:47;18.30;99.90
37242;DHT22;23135;51.078;12.108;2022-08-21T06:49:13;18.30;99.90
37242;DHT22;23135;51.078;12.108;2022-08-21T06:51:39;18.40;99.90
37242;DHT22;23135;51.078;12.108;2022-08-21T06:54:05;18.50;99.90
37242;DHT22;23135;51.078;12.108;2022-08-21T06:56:31;18.50;99.90
37242;DHT22;23135;51.078;12.108;2022-08-21T06:58:58;18.60;99.90
37242;DHT22;23135;51.078;12.108;2022-08-21T07:01:25;18.70;99.90
37242;DHT22;23135;51.078;12.108;2022-08-21T07:03:51;18.80;99.90
37242;DHT22;23135;51.078;12.108;2022-08-21T07:06:17;18.90;99.90
37242;DHT22;23135;51.078;12.108;2022-08-21T07:08:43;19.20;99.90
37242;DHT22;23135;51.078;12.108;2022-08-21T07:11:12;19.40;99.90
37242;DHT22;23135;51.078;12.108;2022-08-21T07:13:39;19.60;99.90
37242;DHT22;23135;51.078;12.108;2022-08-21T07:16:06;19.90;99.90
37242;DHT22;23135;51.078;12.108;2022-08-21T07:18:31;19.90;99.90
37242;DHT22;23135;51.078;12.108;2022-08-21T07:20:57;19.90;99.90
37242;DHT22;23135;51.078;12.108;2022-08-21T07:23:27;19.90;99.90
37242;DHT22;23135;51.078;12.108;2022-08-21T07:25:53;19.90;99.90
37242;DHT22;23135;51.078;12.108;2022-08-21T07:28:19;19.90;99.90
37242;DHT22;23135;51.078;12.108;2022-08-21T07:30:45;19.90;99.90
37242;DHT22;23135;51.078;12.108;2022-08-21T07:33:11;20.00;99.90
37242;DHT22;23135;51.078;12.108;2022-08-21T07:35:37;19.90;99.90
37242;DHT22;23135;51.078;12.108;2022-08-21T07:38:03;20.10;99.90
37242;DHT22;23135;51.078;12.108;2022-08-21T07:40:29;20.30;99.90
37242;DHT22;23135;51.078;12.108;2022-08-21T07:42:54;20.60;99.90
37242;DHT22;23135;51.078;12.108;2022-08-21T07:45:21;20.90;99.90
37242;DHT22;23135;51.078;12.108;2022-08-21T07:47:47;20.80;99.90
37242;DHT22;23135;51.078;12.108;2022-08-21T07:50:15;21.00;99.90
37242;DHT22;23135;51.078;12.108;2022-08-21T07:52:41;21.20;99.90
37242;DHT22;23135;51.078;12.108;2022-08-21T07:55:10;21.30;99.90
37242;DHT22;23135;51.078;12.108;2022-08-21T07:57:36;21.40;99.90
37242;DHT22;23135;51.078;12.108;2022-08-21T08:00:05;21.30;99.90
37242;DHT22;23135;51.078;12.108;2022-08-21T08:02:32;21.30;99.90
37242;DHT22;23135;51.078;12.108;2022-08-21T08:05:06;21.40;99.90
37242;DHT22;23135;51.078;12.108;2022-08-21T08:07:32;21.30;99.90
37242;DHT22;23135;51.078;12.108;2022-08-21T08:09:58;21.30;99.90
37242;DHT22;23135;51.078;12.108;2022-08-21T08:12:24;21.20;99.90
37242;DHT22;23135;51.078;12.108;2022-08-21T08:14:58;21.30;99.90
37242;DHT22;23135;51.078;12.108;2022-08-21T08:17:24;21.40;99.90
37242;DHT22;23135;51.078;12.108;2022-08-21T08:19:50;21.30;99.90
37242;DHT22;23135;51.078;12.108;2022-08-21T08:22:17;21.40;99.90
37242;DHT22;23135;51.078;12.108;2022-08-21T08:24:45;21.70;99.90
37242;DHT22;23135;51.078;12.108;2022-08-21T08:27:11;21.80;99.90
37242;DHT22;23135;51.078;12.108;2022-08-21T08:29:37;21.80;99.90
37242;DHT22;23135;51.078;12.108;2022-08-21T08:32:04;22.10;99.90
37242;DHT22;23135;51.078;12.108;2022-08-21T08:34:29;22.40;99.90
37242;DHT22;23135;51.078;12.108;2022-08-21T08:36:55;22.70;99.90
37242;DHT22;23135;51.078;12.108;2022-08-21T08:39:23;23.20;99.90
37242;DHT22;23135;51.078;12.108;2022-08-21T08:41:48;23.60;99.90
37242;DHT22;23135;51.078;12.108;2022-08-21T08:44:16;23.70;99.90
37242;DHT22;23135;51.078;12.108;2022-08-21T08:46:44;23.70;99.90
37242;DHT22;23135;51.078;12.108;2022-08-21T08:49:18;23.50;99.90
37242;DHT22;23135;51.078;12.108;2022-08-21T08:54:29;23.00;99.90
37242;DHT22;23135;51.078;12.108;2022-08-21T08:57:00;23.20;99.90
37242;DHT22;23135;51.078;12.108;2022-08-21T08:59:33;23.60;99.90
37242;DHT22;23135;51.078;12.108;2022-08-21T09:02:01;23.90;99.90
37242;DHT22;23135;51.078;12.108;2022-08-21T09:04:27;24.30;99.90
37242;DHT22;23135;51.078;12.108;2022-08-21T09:20:28;23.90;98.70
37242;DHT22;23135;51.078;12.108;2022-08-21T09:25:51;24.70;98.10
37242;DHT22;23135;51.078;12.108;2022-08-21T09:28:18;24.80;96.80
37242;DHT22;23135;51.078;12.108;2022-08-21T09:30:44;24.70;97.10
37242;DHT22;23135;51.078;12.108;2022-08-21T09:33:12;24.80;96.70
37242;DHT22;23135;51.078;12.108;2022-08-21T09:35:51;24.40;95.60
37242;DHT22;23135;51.078;12.108;2022-08-21T09:38:32;24.70;96.70
37242;DHT22;23135;51.078;12.108;2022-08-21T09:41:05;24.60;97.10
37242;DHT22;23135;51.078;12.108;2022-08-21T09:43:31;24.30;96.90
37242;DHT22;23135;51.078;12.108;2022-08-21T09:46:04;24.10;97.20
37242;DHT22;23135;51.078;12.108;2022-08-21T09:48:39;24.30;97.00
37242;DHT22;23135;51.078;12.108;2022-08-21T09:51:20;24.30;95.70
37242;DHT22;23135;51.078;12.108;2022-08-21T09:57:00;24.00;95.80
37242;DHT22;23135;51.078;12.108;2022-08-21T09:59:46;24.00;97.40
37242;DHT22;23135;51.078;12.108;2022-08-21T10:05:39;24.40;96.60
37242;DHT22;23135;51.078;12.108;2022-08-21T10:07:39;24.50;95.70
37242;DHT22;23135;51.078;12.108;2022-08-21T10:10:14;24.60;97.00
37242;DHT22;23135;51.078;12.108;2022-08-21T10:15:47;24.50;93.50
37242;DHT22;23135;51.078;12.108;2022-08-21T10:18:29;24.60;94.00
37242;DHT22;23135;51.078;12.108;2022-08-21T10:21:00;24.80;93.30
37242;DHT22;23135;51.078;12.108;2022-08-21T10:23:45;25.20;93.00
37242;DHT22;23135;51.078;12.108;2022-08-21T10:27:22;25.20;91.90
37242;DHT22;23135;51.078;12.108;2022-08-21T10:29:43;25.50;90.10
37242;DHT22;23135;51.078;12.108;2022-08-21T10:40:10;26.50;90.80
37242;DHT22;23135;51.078;12.108;2022-08-21T10:48:27;26.70;85.20
37242;DHT22;23135;51.078;12.108;2022-08-21T10:51:04;26.70;82.70
37242;DHT22;23135;51.078;12.108;2022-08-21T10:58:46;26.70;85.10
37242;DHT22;23135;51.078;12.108;2022-08-21T11:01:33;26.90;84.10
37242;DHT22;23135;51.078;12.108;2022-08-21T11:04:12;27.30;83.80
37242;DHT22;23135;51.078;12.108;2022-08-21T11:06:42;27.30;79.20
37242;DHT22;23135;51.078;12.108;2022-08-21T11:09:18;27.20;80.20
37242;DHT22;23135;51.078;12.108;2022-08-21T11:14:41;26.90;83.20
37242;DHT22;23135;51.078;12.108;2022-08-21T11:17:12;27.50;81.20
37242;DHT22;23135;51.078;12.108;2022-08-21T11:19:54;27.30;81.20
37242;DHT22;23135;51.078;12.108;2022-08-21T11:25:00;26.80;82.20
37242;DHT22;23135;51.078;12.108;2022-08-21T11:30:14;27.40;81.50
37242;DHT22;23135;51.078;12.108;2022-08-21T11:35:34;27.60;78.70
37242;DHT22;23135;51.078;12.108;2022-08-21T11:43:53;27.60;80.50
37242;DHT22;23135;51.078;12.108;2022-08-21T11:46:46;27.90;80.60
37242;DHT22;23135;51.078;12.108;2022-08-21T11:52:22;27.30;80.40
37242;DHT22;23135;51.078;12.108;2022-08-21T11:54:52;27.40;80.30
37242;DHT22;23135;51.078;12.108;2022-08-21T11:59:53;26.90;79.90
37242;DHT22;23135;51.078;12.108;2022-08-21T12:02:27;26.20;82.80
37242;DHT22;23135;51.078;12.108;2022-08-21T12:04:57;25.70;82.10
37242;DHT22;23135;51.078;12.108;2022-08-21T12:07:34;26.00;82.80
37242;DHT22;23135;51.078;12.108;2022-08-21T12:10:04;26.30;82.70
37242;DHT22;23135;51.078;12.108;2022-08-21T12:12:33;26.00;81.60
37242;DHT22;23135;51.078;12.108;2022-08-21T12:15:16;25.80;84.40
37242;DHT22;23135;51.078;12.108;2022-08-21T12:22:55;25.80;87.90
37242;DHT22;23135;51.078;12.108;2022-08-21T12:28:23;26.80;82.80
37242;DHT22;23135;51.078;12.108;2022-08-21T12:30:50;26.60;82.20
37242;DHT22;23135;51.078;12.108;2022-08-21T12:33:37;26.70;83.20
37242;DHT22;23135;51.078;12.108;2022-08-21T12:36:07;26.60;82.70
37242;DHT22;23135;51.078;12.108;2022-08-21T12:38:55;26.60;82.90
37242;DHT22;23135;51.078;12.108;2022-08-21T12:41:28;26.80;82.10
37242;DHT22;23135;51.078;12.108;2022-08-21T12:44:11;26.70;81.90
37242;DHT22;23135;51.078;12.108;2022-08-21T12:46:48;26.10;81.80
37242;DHT22;23135;51.078;12.108;2022-08-21T12:49:19;25.80;84.00
37242;DHT22;23135;51.078;12.108;2022-08-21T12:52:00;26.30;83.40
37242;DHT22;23135;51.078;12.108;2022-08-21T12:54:37;26.90;83.30
37242;DHT22;23135;51.078;12.108;2022-08-21T12:57:05;27.50;81.30
37242;DHT22;23135;51.078;12.108;2022-08-21T12:59:31;27.80;79.90
37242;DHT22;23135;51.078;12.108;2022-08-21T13:02:00;27.80;80.90
37242;DHT22;23135;51.078;12.108;2022-08-21T13:04:40;27.70;78.90
37242;DHT22;23135;51.078;12.108;2022-08-21T13:07:12;27.60;79.40
37242;DHT22;23135;51.078;12.108;2022-08-21T13:12:29;27.90;80.80
37242;DHT22;23135;51.078;12.108;2022-08-21T13:15:02;27.60;80.50
37242;DHT22;23135;51.078;12.108;2022-08-21T13:17:32;27.00;80.40
37242;DHT22;23135;51.078;12.108;2022-08-21T13:20:04;26.50;80.30
37242;DHT22;23135;51.078;12.108;2022-08-21T13:22:31;26.70;80.80
37242;DHT22;23135;51.078;12.108;2022-08-21T13:24:57;27.20;80.80
37242;DHT22;23135;51.078;12.108;2022-08-21T13:27:27;27.80;81.00
37242;DHT22;23135;51.078;12.108;2022-08-21T13:30:13;28.00;77.00
37242;DHT22;23135;51.078;12.108;2022-08-21T13:32:43;28.10;76.20
37242;DHT22;23135;51.078;12.108;2022-08-21T13:35:15;28.30;75.20
37242;DHT22;23135;51.078;12.108;2022-08-21T13:37:43;28.20;76.50
37242;DHT22;23135;51.078;12.108;2022-08-21T13:40:15;28.20;75.90
37242;DHT22;23135;51.078;12.108;2022-08-21T13:42:43;28.60;74.10
37242;DHT22;23135;51.078;12.108;2022-08-21T13:45:16;28.50;74.80
37242;DHT22;23135;51.078;12.108;2022-08-21T13:47:43;28.40;76.10
37242;DHT22;23135;51.078;12.108;2022-08-21T13:50:13;28.40;74.90
37242;DHT22;23135;51.078;12.108;2022-08-21T13:52:49;27.80;76.50
37242;DHT22;23135;51.078;12.108;2022-08-21T13:55:17;27.30;76.80
37242;DHT22;23135;51.078;12.108;2022-08-21T13:57:42;26.90;77.00
37242;DHT22;23135;51.078;12.108;2022-08-21T14:00:25;27.10;77.00
37242;DHT22;23135;51.078;12.108;2022-08-21T14:02:52;27.70;76.90
37242;DHT22;23135;51.078;12.108;2022-08-21T14:05:27;28.00;76.20
37242;DHT22;23135;51.078;12.108;2022-08-21T14:08:08;28.10;77.00
37242;DHT22;23135;51.078;12.108;2022-08-21T14:10:42;27.90;74.70
37242;DHT22;23135;51.078;12.108;2022-08-21T14:13:24;27.70;76.20
37242;DHT22;23135;51.078;12.108;2022-08-21T14:16:00;28.10;75.50
37242;DHT22;23135;51.078;12.108;2022-08-21T14:18:27;27.80;76.10
37242;DHT22;23135;51.078;12.108;2022-08-21T14:21:09;27.20;76.30
37242;DHT22;23135;51.078;12.108;2022-08-21T14:23:35;27.10;77.70
37242;DHT22;23135;51.078;12.108;2022-08-21T14:26:04;27.30;76.90
37242;DHT22;23135;51.078;12.108;2022-08-21T14:28:39;27.20;76.90
37242;DHT22;23135;51.078;12.108;2022-08-21T14:31:17;26.80;77.10
37242;DHT22;23135;51.078;12.108;2022-08-21T14:33:43;26.30;77.80
37242;DHT22;23135;51.078;12.108;2022-08-21T14:36:09;25.90;79.00
37242;DHT22;23135;51.078;12.108;2022-08-21T14:38:39;25.90;80.30
37242;DHT22;23135;51.078;12.108;2022-08-21T14:41:15;26.30;79.80
37242;DHT22;23135;51.078;12.108;2022-08-21T14:43:42;26.70;79.50
37242;DHT22;23135;51.078;12.108;2022-08-21T14:46:11;27.00;77.90
37242;DHT22;23135;51.078;12.108;2022-08-21T14:48:37;27.00;76.80
37242;DHT22;23135;51.078;12.108;2022-08-21T14:51:04;27.20;77.10
37242;DHT22;23135;51.078;12.108;2022-08-21T14:53:30;27.20;77.50
37242;DHT22;23135;51.078;12.108;2022-08-21T14:55:56;27.10;77.30
37242;DHT22;23135;51.078;12.108;2022-08-21T14:58:34;27.00;77.40
37242;DHT22;23135;51.078;12.108;2022-08-21T15:01:00;27.10;77.60
37242;DHT22;23135;51.078;12.108;2022-08-21T15:03:29;27.00;77.50
37242;DHT22;23135;51.078;12.108;2022-08-21T15:05:56;26.80;77.00
37242;DHT22;23135;51.078;12.108;2022-08-21T15:08:22;26.70;77.10
37242;DHT22;23135;51.078;12.108;2022-08-21T15:10:47;26.60;78.10
37242;DHT22;23135;51.078;12.108;2022-08-21T15:13:13;26.40;78.70
37242;DHT22;23135;51.078;12.108;2022-08-21T15:15:41;26.40;78.10
37242;DHT22;23135;51.078;12.108;2022-08-21T15:18:07;26.10;78.30
37242;DHT22;23135;51.078;12.108;2022-08-21T15:20:33;26.10;80.70
37242;DHT22;23135;51.078;12.108;2022-08-21T15:22:59;25.90;79.70
37242;DHT22;23135;51.078;12.108;2022-08-21T15:25:25;25.80;80.50
37242;DHT22;23135;51.078;12.108;2022-08-21T15:27:51;25.60;80.40
37242;DHT22;23135;51.078;12.108;2022-08-21T15:30:16;25.50;80.60
37242;DHT22;23135;51.078;12.108;2022-08-21T15:32:42;25.40;81.00
37242;DHT22;23135;51.078;12.108;2022-08-21T15:35:08;25.30;81.00
37242;DHT22;23135;51.078;12.108;2022-08-21T15:37:34;25.30;80.60
37242;DHT22;23135;51.078;12.108;2022-08-21T15:39:59;25.10;80.50
37242;DHT22;23135;51.078;12.108;2022-08-21T15:42:26;25.00;81.40
37242;DHT22;23135;51.078;12.108;2022-08-21T15:44:54;25.00;81.70
37242;DHT22;23135;51.078;12.108;2022-08-21T15:47:31;25.00;81.90
37242;DHT22;23135;51.078;12.108;2022-08-21T15:49:58;24.90;81.70
37242;DHT22;23135;51.078;12.108;2022-08-21T15:52:24;24.80;81.90
37242;DHT22;23135;51.078;12.108;2022-08-21T15:54:50;24.80;81.70
37242;DHT22;23135;51.078;12.108;2022-08-21T15:57:18;24.80;81.90
37242;DHT22;23135;51.078;12.108;2022-08-21T15:59:57;24.80;81.70
37242;DHT22;23135;51.078;12.108;2022-08-21T16:02:30;24.70;83.10
37242;DHT22;23135;51.078;12.108;2022-08-21T16:04:56;24.60;82.40
37242;DHT22;23135;51.078;12.108;2022-08-21T16:07:22;24.60;82.70
37242;DHT22;23135;51.078;12.108;2022-08-21T16:09:48;24.60;82.90
37242;DHT22;23135;51.078;12.108;2022-08-21T16:12:21;24.60;83.00
37242;DHT22;23135;51.078;12.108;2022-08-21T16:14:47;24.50;82.70
37242;DHT22;23135;51.078;12.108;2022-08-21T16:17:15;24.50;83.60
37242;DHT22;23135;51.078;12.108;2022-08-21T16:19:40;24.40;83.10
37242;DHT22;23135;51.078;12.108;2022-08-21T16:22:06;24.40;83.50
37242;DHT22;23135;51.078;12.108;2022-08-21T16:24:32;24.30;84.30
37242;DHT22;23135;51.078;12.108;2022-08-21T16:26:57;24.30;83.90
37242;DHT22;23135;51.078;12.108;2022-08-21T16:29:23;24.30;84.30
37242;DHT22;23135;51.078;12.108;2022-08-21T16:31:50;24.30;83.60
37242;DHT22;23135;51.078;12.108;2022-08-21T16:34:17;24.30;84.90
37242;DHT22;23135;51.078;12.108;2022-08-21T16:36:44;24.30;84.60
37242;DHT22;23135;51.078;12.108;2022-08-21T16:39:10;24.20;84.00
37242;DHT22;23135;51.078;12.108;2022-08-21T16:41:36;24.20;85.00
37242;DHT22;23135;51.078;12.108;2022-08-21T16:44:03;24.20;85.50
37242;DHT22;23135;51.078;12.108;2022-08-21T16:46:30;24.10;86.70